Time;durP1;ratioP1;P1;durP2;ratioP2;P2;SDS_P1;SDS_P2;PMS_P1;PMS_P2;Temp;Humidity;BMP_temperature;BMP_pressure;BME280_temperature;BME280_humidity;BME280_pressure;Samples;Min_cycle;Max_cycle;Signal;HPM_P1;HPM_P2
2022/10/04 00:01:54;;;;;;;10.15;8.95;;;12.10;99.90;;;;;;5000763;28;90325;-32
2022/10/04 00:04:22;;;;;;;14.90;10.10;;;12.10;99.90;;;;;;5000819;28;90917;-31
2022/10/04 00:06:54;;;;;;;12.10;9.27;;;12.10;99.90;;;;;;5000503;28;89879;-30
2022/10/04 00:09:25;;;;;;;13.50;8.98;;;12.10;99.90;;;;;;5001218;28;87956;-30
2022/10/04 00:11:54;;;;;;;16.35;10.00;;;12.20;99.90;;;;;;5001384;28;90873;-32
2022/10/04 00:14:50;;;;;;;11.93;9.60;;;12.10;99.90;;;;;;5000494;28;89873;-32
2022/10/04 00:17:25;;;;;;;16.20;10.18;;;12.20;99.90;;;;;;4984021;28;89437;-31
2022/10/04 00:19:52;;;;;;;12.30;9.40;;;12.10;99.90;;;;;;5000675;28;89953;-32
2022/10/04 00:22:22;;;;;;;17.05;10.82;;;12.20;99.90;;;;;;5000953;28;89443;-35
2022/10/04 00:25:09;;;;;;;10.48;9.20;;;12.20;99.90;;;;;;4999486;28;90788;-30
2022/10/04 00:27:37;;;;;;;12.45;8.23;;;12.20;99.90;;;;;;5000485;28;90596;-34
2022/10/04 00:30:02;;;;;;;13.13;8.65;;;12.10;99.90;;;;;;5001115;28;88241;-31
2022/10/04 00:32:30;;;;;;;9.95;8.43;;;12.20;99.90;;;;;;5000162;28;90362;-32
2022/10/04 00:34:57;;;;;;;;;;;12.10;99.90;;;;;;5000852;28;89934;-30
2022/10/04 00:37:24;;;;;;;11.68;9.23;;;12.10;99.90;;;;;;5002317;28;89072;-32
2022/10/04 00:40:00;;;;;;;14.73;9.32;;;12.10;99.90;;;;;;5001047;28;89259;-30
2022/10/04 00:42:45;;;;;;;16.50;9.48;;;12.10;99.90;;;;;;5000344;28;90343;-30
2022/10/04 00:45:25;;;;;;;14.23;10.50;;;12.10;99.90;;;;;;5000769;28;90516;-31
2022/10/04 00:48:09;;;;;;;20.55;9.95;;;12.10;99.90;;;;;;5000506;28;89865;-32
2022/10/04 00:50:46;;;;;;;19.65;9.20;;;12.10;99.90;;;;;;5034294;22;90151;-29
2022/10/04 00:53:37;;;;;;;10.48;9.43;;;12.10;99.90;;;;;;5000618;28;90358;-35
2022/10/04 00:56:09;;;;;;;11.63;10.48;;;12.10;99.90;;;;;;4971936;28;89614;-33
2022/10/04 00:58:48;;;;;;;16.05;9.35;;;12.00;99.90;;;;;;4999825;28;88707;-30
2022/10/04 01:01:20;;;;;;;10.43;8.30;;;12.00;99.90;;;;;;5000400;28;88305;-30
2022/10/04 01:03:46;;;;;;;15.57;9.40;;;12.00;99.90;;;;;;4999444;28;90068;-33
2022/10/04 01:06:13;;;;;;;12.13;9.50;;;12.00;99.90;;;;;;5000397;28;89472;-30
2022/10/04 01:08:50;;;;;;;12.07;9.27;;;12.00;99.90;;;;;;5000850;28;90145;-30
2022/10/04 01:11:21;;;;;;;23.05;10.50;;;12.00;99.90;;;;;;4999849;28;89215;-31
2022/10/04 01:14:10;;;;;;;16.27;10.68;;;12.00;99.90;;;;;;4997934;28;90063;-33
2022/10/04 01:16:37;;;;;;;17.27;8.85;;;12.00;99.90;;;;;;4998533;28;90466;-32
2022/10/04 01:19:21;;;;;;;13.30;10.48;;;12.00;99.90;;;;;;5000139;28;90468;-31
2022/10/04 01:22:07;;;;;;;13.23;10.15;;;12.00;99.90;;;;;;5000687;28;88627;-32
2022/10/04 01:24:43;;;;;;;12.00;10.13;;;12.00;99.90;;;;;;4999167;28;88844;-30
2022/10/04 01:27:31;;;;;;;13.35;10.88;;;11.90;99.90;;;;;;4999192;28;89988;-30
2022/10/04 01:29:57;;;;;;;13.27;9.32;;;11.90;99.90;;;;;;4999162;28;89602;-31
2022/10/04 01:32:24;;;;;;;16.20;10.35;;;11.90;99.90;;;;;;5000470;28;89461;-33
2022/10/04 01:34:50;;;;;;;18.75;9.75;;;11.90;99.90;;;;;;4999284;28;89858;-30
2022/10/04 01:37:16;;;;;;;13.70;9.23;;;11.90;99.90;;;;;;4999339;28;89738;-32
2022/10/04 01:39:41;;;;;;;22.48;10.55;;;11.90;99.90;;;;;;4999734;28;89850;-29
2022/10/04 01:42:20;;;;;;;13.40;10.25;;;11.90;99.90;;;;;;4999158;28;89113;-31
2022/10/04 01:45:04;;;;;;;;;;;11.90;99.90;;;;;;4999474;28;90275;-29
2022/10/04 01:47:51;;;;;;;14.63;11.38;;;11.80;99.90;;;;;;5001699;28;88663;-32
2022/10/04 01:50:36;;;;;;;17.88;9.85;;;11.90;99.90;;;;;;4998380;28;89532;-30
2022/10/04 01:53:20;;;;;;;13.88;9.23;;;11.90;99.90;;;;;;4999707;28;89439;-30
2022/10/04 01:56:17;;;;;;;20.67;10.98;;;11.90;99.90;;;;;;4999784;28;91168;-30
2022/10/04 01:58:49;;;;;;;15.50;10.50;;;11.80;99.90;;;;;;4979989;28;94582;-32
2022/10/04 02:01:29;;;;;;;18.85;12.15;;;11.80;99.90;;;;;;4993793;28;94767;-29
2022/10/04 02:04:14;;;;;;;13.07;10.35;;;11.80;99.90;;;;;;4996303;28;93462;-32
2022/10/04 02:06:42;;;;;;;20.52;11.85;;;11.80;99.90;;;;;;4983512;28;92473;-32
2022/10/04 02:09:16;;;;;;;14.25;11.82;;;11.80;99.90;;;;;;4995609;28;96765;-31
2022/10/04 02:11:43;;;;;;;12.23;9.32;;;11.80;99.90;;;;;;4996621;28;95883;-31
2022/10/04 02:14:19;;;;;;;14.43;10.60;;;11.80;99.90;;;;;;4997317;28;93664;-31
2022/10/04 02:16:46;;;;;;;13.60;11.73;;;11.80;99.90;;;;;;4996299;28;92698;-30
2022/10/04 02:19:13;;;;;;;16.63;11.10;;;11.90;99.90;;;;;;4994563;28;94769;-35
2022/10/04 02:21:39;;;;;;;13.52;10.35;;;11.80;99.90;;;;;;4996546;28;94637;-31
2022/10/04 02:24:07;;;;;;;19.05;11.50;;;11.80;99.90;;;;;;4995996;28;94013;-30
2022/10/04 02:26:32;;;;;;;20.55;12.65;;;11.90;99.90;;;;;;4995720;28;91451;-31
2022/10/04 02:28:58;;;;;;;13.43;11.38;;;11.90;99.90;;;;;;4996283;28;95386;-30
2022/10/04 02:34:09;;;;;;;12.05;10.68;;;11.90;99.90;;;;;;4995519;28;94472;-31
2022/10/04 02:36:36;;;;;;;16.73;11.07;;;11.90;99.90;;;;;;4996222;28;93145;-33
2022/10/04 02:39:18;;;;;;;14.48;11.85;;;11.90;99.90;;;;;;4995842;28;94880;-32
2022/10/04 02:41:49;;;;;;;15.25;12.70;;;11.90;99.90;;;;;;4984138;28;94561;-31
2022/10/04 02:44:26;;;;;;;13.13;10.70;;;11.80;99.90;;;;;;4995444;28;94052;-33
2022/10/04 02:47:24;;;;;;;14.30;10.98;;;11.80;99.90;;;;;;4995705;28;92629;-31
2022/10/04 02:50:05;;;;;;;13.57;10.93;;;11.80;99.90;;;;;;4990449;28;95312;-33
2022/10/04 02:52:37;;;;;;;17.63;12.55;;;11.80;99.90;;;;;;4995675;28;94321;-31
2022/10/04 02:55:13;;;;;;;16.17;10.77;;;11.80;99.90;;;;;;4995479;28;92460;-29
2022/10/04 02:57:41;;;;;;;19.42;10.10;;;11.80;99.90;;;;;;4996134;28;94603;-34
2022/10/04 03:00:18;;;;;;;15.43;11.20;;;11.70;99.90;;;;;;4994856;28;96184;-32
2022/10/04 03:03:09;;;;;;;16.25;11.18;;;11.70;99.90;;;;;;4995850;28;97162;-33
2022/10/04 03:05:35;;;;;;;12.95;11.40;;;11.70;99.90;;;;;;4958248;28;94465;-31
2022/10/04 03:08:03;;;;;;;11.73;9.48;;;11.70;99.90;;;;;;4995798;28;92703;-31
2022/10/04 03:10:29;;;;;;;18.08;11.23;;;11.60;99.90;;;;;;4995912;28;94745;-31
2022/10/04 03:12:55;;;;;;;15.30;11.15;;;11.60;99.90;;;;;;4996310;28;94421;-30
2022/10/04 03:15:21;;;;;;;12.70;9.95;;;11.60;99.90;;;;;;4995299;28;92511;-31
2022/10/04 03:17:47;;;;;;;12.73;10.15;;;11.60;99.90;;;;;;4996713;28;93865;-33
2022/10/04 03:20:19;;;;;;;16.08;10.18;;;11.60;99.90;;;;;;4995140;28;94750;-31
2022/10/04 03:22:49;;;;;;;13.20;10.27;;;11.60;99.90;;;;;;4996089;28;94877;-28
2022/10/04 03:25:21;;;;;;;15.95;12.45;;;11.60;99.90;;;;;;4994769;28;93030;-33
2022/10/04 03:27:49;;;;;;;13.90;11.57;;;11.60;99.90;;;;;;4995459;28;92991;-31
2022/10/04 03:30:15;;;;;;;21.98;12.25;;;11.60;99.90;;;;;;4994505;28;94793;-32
2022/10/04 03:32:42;;;;;;;13.48;10.85;;;11.60;99.90;;;;;;4995525;28;94513;-32
2022/10/04 03:35:36;;;;;;;12.35;11.15;;;11.60;99.90;;;;;;4995005;28;93973;-32
2022/10/04 03:38:07;;;;;;;16.90;11.02;;;11.60;99.90;;;;;;4986690;28;93316;-30
2022/10/04 03:40:36;;;;;;;18.00;11.10;;;11.60;99.90;;;;;;4997776;28;94841;-32
2022/10/04 03:43:04;;;;;;;20.98;11.05;;;11.60;99.90;;;;;;4999001;28;94726;-33
2022/10/04 03:45:32;;;;;;;26.00;11.57;;;11.60;99.90;;;;;;4998929;28;93644;-33
2022/10/04 03:48:04;;;;;;;15.00;10.90;;;11.60;99.90;;;;;;4984903;28;92153;-30
2022/10/04 03:50:35;;;;;;;20.90;11.10;;;11.60;99.90;;;;;;4996423;28;95222;-32
2022/10/04 03:53:34;;;;;;;16.73;12.13;;;11.60;99.90;;;;;;4997908;28;94939;-29
2022/10/04 03:56:01;;;;;;;16.70;11.70;;;11.60;99.90;;;;;;4998546;28;93362;-30
2022/10/04 03:58:29;;;;;;;20.13;11.60;;;11.60;99.90;;;;;;4998406;28;94661;-34
2022/10/04 04:01:04;;;;;;;17.70;12.80;;;11.60;99.90;;;;;;4997826;28;94814;-33
2022/10/04 04:03:40;;;;;;;21.00;12.55;;;11.60;99.90;;;;;;4998512;28;94582;-29
2022/10/04 04:06:15;;;;;;;19.63;12.25;;;11.60;99.90;;;;;;4997976;28;92161;-30
2022/10/04 04:08:43;;;;;;;13.85;10.02;;;11.60;99.90;;;;;;4999100;28;91832;-32
2022/10/04 04:11:14;;;;;;;;;;;11.60;99.90;;;;;;4998864;28;95996;-32
2022/10/04 04:13:49;;;;;;;21.52;12.35;;;11.60;99.90;;;;;;5000257;28;94531;-33
2022/10/04 04:16:17;;;;;;;25.17;12.73;;;11.60;99.90;;;;;;4996984;28;94938;-33
2022/10/04 04:18:44;;;;;;;19.40;12.47;;;11.50;99.90;;;;;;4998136;28;94000;-33
2022/10/04 04:21:16;;;;;;;15.63;11.82;;;11.50;99.90;;;;;;4998240;28;94999;-31
2022/10/04 04:23:47;;;;;;;15.05;11.88;;;11.50;99.90;;;;;;4998047;28;94595;-30
2022/10/04 04:26:26;;;;;;;21.17;13.25;;;11.50;99.90;;;;;;4997946;28;94753;-30
2022/10/04 04:29:02;;;;;;;16.83;13.80;;;11.50;99.90;;;;;;4997223;28;94849;-31
2022/10/04 04:31:43;;;;;;;16.75;12.80;;;11.50;99.90;;;;;;4997693;28;94745;-30
2022/10/04 04:34:24;;;;;;;17.88;13.73;;;11.40;99.90;;;;;;4998061;28;95821;-31
2022/10/04 04:36:51;;;;;;;26.95;13.15;;;11.50;99.90;;;;;;4997081;28;93260;-32
2022/10/04 04:42:09;;;;;;;22.20;16.63;;;11.40;99.90;;;;;;4997423;28;96475;-30
2022/10/04 04:44:37;;;;;;;32.58;23.30;;;11.50;99.90;;;;;;4995522;28;95740;-34
2022/10/04 04:47:08;;;;;;;;;;;11.40;99.90;;;;;;4998918;28;94388;-34
2022/10/04 04:49:38;;;;;;;22.90;19.52;;;11.40;99.90;;;;;;4998463;28;94466;-30
2022/10/04 04:52:04;;;;;;;22.85;16.15;;;11.40;99.90;;;;;;4997357;28;94531;-33
2022/10/04 04:54:30;;;;;;;17.45;14.23;;;11.40;99.90;;;;;;4997268;28;94745;-32
2022/10/04 04:56:56;;;;;;;25.17;14.15;;;11.40;99.90;;;;;;4997733;28;92598;-31
2022/10/04 04:59:24;;;;;;;25.25;14.88;;;11.40;99.90;;;;;;4997526;28;91787;-33
2022/10/04 05:01:50;;;;;;;20.05;13.98;;;11.40;99.90;;;;;;4997407;28;95354;-31
2022/10/04 05:04:17;;;;;;;20.50;15.73;;;11.40;99.90;;;;;;4996284;28;94417;-30
2022/10/04 05:07:05;;;;;;;15.20;13.10;;;11.40;99.90;;;;;;4996474;28;96047;-34
2022/10/04 05:09:37;;;;;;;22.67;15.38;;;11.40;99.90;;;;;;4997081;28;94188;-30
2022/10/04 05:12:15;;;;;;;21.63;16.27;;;11.30;99.90;;;;;;4995741;28;95557;-31
2022/10/04 05:14:46;;;;;;;18.75;14.05;;;11.30;99.90;;;;;;4996601;28;94136;-30
2022/10/04 05:17:22;;;;;;;22.98;16.27;;;11.30;99.90;;;;;;4996468;28;94188;-32
2022/10/04 05:19:49;;;;;;;20.55;16.42;;;11.30;99.90;;;;;;4988895;28;93763;-34
2022/10/04 05:22:19;;;;;;;24.42;17.10;;;11.20;99.90;;;;;;4997000;28;94908;-30
2022/10/04 05:24:50;;;;;;;19.92;15.57;;;11.20;99.90;;;;;;4997254;28;94667;-31
2022/10/04 05:27:35;;;;;;;21.50;14.63;;;11.20;99.90;;;;;;4996911;28;94566;-34
2022/10/04 05:30:07;;;;;;;20.35;15.27;;;11.20;99.90;;;;;;4989787;28;94456;-30
2022/10/04 05:33:03;;;;;;;21.45;14.95;;;11.20;99.90;;;;;;4996197;28;95134;-32
2022/10/04 05:36:00;;;;;;;21.70;15.98;;;11.10;99.90;;;;;;4992003;28;96450;-32
2022/10/04 05:38:55;;;;;;;20.83;17.07;;;11.10;99.90;;;;;;4958102;28;92862;-30
2022/10/04 05:41:45;;;;;;;29.33;18.00;;;11.10;99.90;;;;;;4995916;28;94016;-30
2022/10/04 05:44:35;;;;;;;28.38;16.30;;;11.00;99.90;;;;;;4996826;28;95031;-30
2022/10/04 05:47:04;;;;;;;24.60;17.02;;;11.00;99.90;;;;;;4988794;28;94997;-32
2022/10/04 05:49:39;;;;;;;21.33;17.13;;;11.00;99.90;;;;;;4995867;28;92245;-32
2022/10/04 05:52:26;;;;;;;19.60;16.58;;;11.00;99.90;;;;;;4996055;28;91626;-30
2022/10/04 05:55:27;;;;;;;30.35;16.33;;;11.00;99.90;;;;;;4996101;28;94662;-33
2022/10/04 05:58:02;;;;;;;22.13;15.82;;;11.00;99.90;;;;;;4934051;28;94307;-30
2022/10/04 06:00:57;;;;;;;17.63;15.63;;;11.00;99.90;;;;;;4985064;28;94824;-32
2022/10/04 06:03:33;;;;;;;22.17;15.20;;;10.90;99.90;;;;;;4996450;28;94491;-29
2022/10/04 06:06:06;;;;;;;19.45;16.70;;;10.90;99.90;;;;;;4995113;28;95949;-31
2022/10/04 06:08:44;;;;;;;19.58;14.82;;;10.90;99.90;;;;;;4996413;28;95294;-31
2022/10/04 06:11:47;;;;;;;18.52;15.40;;;10.90;99.90;;;;;;4996079;28;92691;-30
2022/10/04 06:14:49;;;;;;;26.95;17.10;;;10.90;99.90;;;;;;4994251;28;93066;-33
2022/10/04 06:17:31;;;;;;;25.55;17.90;;;10.90;99.90;;;;;;4913581;28;94728;-30
2022/10/04 06:20:12;;;;;;;22.45;16.25;;;11.00;99.90;;;;;;4987903;28;95041;-34
2022/10/04 06:22:51;;;;;;;25.95;16.67;;;10.90;99.90;;;;;;4995854;28;94101;-30
2022/10/04 06:25:44;;;;;;;22.27;15.85;;;10.90;99.90;;;;;;4995150;28;92617;-34
2022/10/04 06:28:22;;;;;;;21.52;16.90;;;10.90;99.90;;;;;;4986727;28;93686;-31
2022/10/04 06:30:58;;;;;;;35.58;19.58;;;10.90;99.90;;;;;;4995570;28;95501;-32
2022/10/04 06:33:55;;;;;;;25.85;17.08;;;10.90;99.90;;;;;;4995585;28;92498;-32
2022/10/04 06:36:35;;;;;;;39.95;18.52;;;10.90;99.90;;;;;;4995316;28;92684;-33
2022/10/04 06:39:01;;;;;;;19.13;15.45;;;10.90;99.90;;;;;;4995266;28;96605;-30
2022/10/04 06:41:48;;;;;;;23.50;18.17;;;10.90;99.90;;;;;;4994930;28;94702;-31
2022/10/04 06:44:52;;;;;;;25.80;16.15;;;11.00;99.90;;;;;;4995781;28;93377;-31
2022/10/04 06:47:55;;;;;;;24.15;15.63;;;11.00;99.90;;;;;;4975776;28;93538;-31
2022/10/04 06:50:27;;;;;;;19.67;17.38;;;11.00;99.90;;;;;;4981889;28;95183;-34
2022/10/04 06:53:15;;;;;;;26.92;17.17;;;11.00;99.90;;;;;;4994890;28;94503;-29
2022/10/04 06:55:40;;;;;;;;;;;11.00;99.90;;;;;;4995333;28;93094;-30
2022/10/04 06:58:56;;;;;;;26.42;16.95;;;11.00;99.90;;;;;;4997830;28;93997;-31
2022/10/04 07:01:25;;;;;;;21.75;17.23;;;11.10;99.90;;;;;;4950129;28;94730;-32
2022/10/04 07:03:53;;;;;;;22.40;16.85;;;11.10;99.90;;;;;;4993514;28;94447;-33
2022/10/04 07:06:32;;;;;;;28.95;17.63;;;11.10;99.90;;;;;;4993094;28;92646;-32
2022/10/04 07:09:02;;;;;;;25.95;17.88;;;11.20;99.90;;;;;;4989295;28;94564;-29
2022/10/04 07:11:46;;;;;;;23.92;17.27;;;11.20;99.90;;;;;;4989255;28;94662;-31
2022/10/04 07:14:17;;;;;;;25.05;17.27;;;11.30;99.90;;;;;;4996982;28;94521;-34
2022/10/04 07:16:53;;;;;;;19.15;16.38;;;11.40;99.90;;;;;;4994734;28;92160;-31
2022/10/04 07:19:19;;;;;;;23.50;18.65;;;11.50;99.90;;;;;;4996383;28;95162;-32
2022/10/04 07:22:05;;;;;;;25.17;17.67;;;11.60;99.90;;;;;;4995846;28;95482;-31
2022/10/04 07:24:58;;;;;;;27.23;19.85;;;11.70;99.90;;;;;;4996200;28;95689;-29
2022/10/04 07:27:33;;;;;;;21.00;16.38;;;11.80;99.90;;;;;;4996447;28;94634;-32
2022/10/04 07:30:03;;;;;;;26.77;17.02;;;11.90;99.90;;;;;;4996321;28;94365;-31
2022/10/04 07:32:33;;;;;;;18.42;13.60;;;12.00;99.90;;;;;;4995455;28;94756;-30
2022/10/04 07:35:12;;;;;;;21.88;16.67;;;12.10;99.90;;;;;;4996316;28;94474;-32
2022/10/04 07:37:52;;;;;;;22.00;17.20;;;12.20;99.90;;;;;;4996452;28;94276;-30
2022/10/04 07:40:24;;;;;;;21.08;16.48;;;12.20;99.90;;;;;;4978656;28;93897;-30
2022/10/04 07:43:04;;;;;;;19.15;15.23;;;12.30;99.90;;;;;;4996024;28;94757;-34
2022/10/04 07:45:38;;;;;;;24.45;16.77;;;12.40;99.90;;;;;;4996040;28;94585;-30
2022/10/04 07:48:12;;;;;;;25.85;15.40;;;12.60;99.90;;;;;;4983305;28;94130;-30
2022/10/04 07:51:02;;;;;;;17.00;13.52;;;12.70;99.90;;;;;;4995890;28;92657;-30
2022/10/04 07:53:48;;;;;;;18.75;14.90;;;12.90;99.90;;;;;;4995328;28;94966;-31
2022/10/04 07:56:19;;;;;;;15.52;13.25;;;13.10;99.90;;;;;;4995273;28;94734;-33
2022/10/04 07:59:17;;;;;;;31.50;16.85;;;13.20;99.90;;;;;;4997404;28;94142;-31
2022/10/04 08:02:15;;;;;;;16.85;13.68;;;13.20;99.90;;;;;;4983605;28;92253;-30
2022/10/04 08:04:56;;;;;;;14.77;12.30;;;13.20;99.90;;;;;;4994987;28;94539;-32
2022/10/04 08:07:45;;;;;;;14.98;11.68;;;13.20;99.90;;;;;;4995761;28;94375;-31
2022/10/04 08:10:36;;;;;;;12.70;10.98;;;13.20;99.90;;;;;;4993356;28;94301;-31
2022/10/04 08:13:04;;;;;;;14.95;11.85;;;13.30;99.90;;;;;;4995620;28;94801;-30
2022/10/04 08:15:38;;;;;;;13.63;12.18;;;13.50;99.90;;;;;;4994634;28;95753;-31
2022/10/04 08:18:16;;;;;;;22.40;11.88;;;13.70;99.90;;;;;;4989505;28;95140;-31
2022/10/04 08:20:59;;;;;;;18.97;11.53;;;13.90;99.90;;;;;;4996328;28;94698;-33
2022/10/04 08:23:59;;;;;;;15.98;11.57;;;14.00;99.90;;;;;;4994155;28;92788;-32
2022/10/04 08:27:00;;;;;;;17.13;11.40;;;14.20;99.90;;;;;;4995354;28;94443;-31
2022/10/04 08:29:46;;;;;;;16.52;12.20;;;14.20;99.90;;;;;;4994343;28;94858;-30
2022/10/04 08:32:14;;;;;;;13.07;11.63;;;14.40;99.90;;;;;;4991879;28;92731;-35
2022/10/04 08:34:41;;;;;;;;;;;14.60;99.90;;;;;;4996844;28;93730;-31
2022/10/04 08:37:20;;;;;;;16.07;11.33;;;14.70;99.90;;;;;;4997343;28;94928;-30
2022/10/04 08:40:10;;;;;;;15.90;10.40;;;14.70;99.90;;;;;;4995094;28;94515;-31
2022/10/04 08:42:44;;;;;;;14.45;11.50;;;14.60;99.90;;;;;;4994845;28;95707;-32
2022/10/04 08:45:42;;;;;;;15.40;9.52;;;14.50;99.90;;;;;;4995508;28;94668;-31
2022/10/04 08:48:44;;;;;;;14.18;9.40;;;14.50;99.90;;;;;;4990570;28;94771;-32
2022/10/04 08:51:25;;;;;;;14.02;10.43;;;14.50;99.90;;;;;;4993371;28;95267;-30
2022/10/04 08:54:18;;;;;;;11.07;9.60;;;14.40;99.90;;;;;;4995897;28;94448;-32
2022/10/04 08:57:15;;;;;;;11.32;8.48;;;14.50;99.90;;;;;;4989939;28;94353;-33
2022/10/04 09:00:12;;;;;;;15.00;9.60;;;14.60;99.90;;;;;;4996163;28;94673;-33
2022/10/04 09:03:12;;;;;;;18.83;10.27;;;14.70;99.90;;;;;;4996134;28;92921;-33
2022/10/04 09:05:54;;;;;;;8.90;8.07;;;14.80;99.90;;;;;;4994746;28;93185;-31
2022/10/04 09:08:29;;;;;;;12.45;10.10;;;14.90;99.90;;;;;;4995061;28;93729;-31
2022/10/04 09:11:14;;;;;;;16.42;9.88;;;14.90;99.90;;;;;;4994512;28;96071;-32
2022/10/04 09:13:45;;;;;;;10.45;9.38;;;14.90;99.90;;;;;;4996050;28;95837;-31
2022/10/04 09:16:37;;;;;;;13.70;10.57;;;14.90;99.90;;;;;;4995833;28;93387;-32
2022/10/04 09:19:27;;;;;;;12.55;11.20;;;15.00;99.90;;;;;;4990202;28;94010;-33
2022/10/04 09:22:16;;;;;;;17.55;9.40;;;15.00;99.90;;;;;;4994592;28;94817;-30
2022/10/04 09:25:09;;;;;;;12.60;10.35;;;15.20;99.90;;;;;;4986873;28;96112;-32
2022/10/04 09:28:12;;;;;;;15.88;10.00;;;15.20;99.90;;;;;;4994512;28;94090;-33
2022/10/04 09:31:27;;;;;;;10.25;9.23;;;15.20;99.90;;;;;;4922229;28;93481;-33
2022/10/04 09:34:02;;;;;;;13.02;9.73;;;15.30;99.90;;;;;;4911728;28;94237;-30
2022/10/04 09:37:24;;;;;;;10.55;9.45;;;15.40;99.90;;;;;;4985192;28;94581;-31
2022/10/04 09:40:27;;;;;;;17.15;9.75;;;15.50;99.90;;;;;;4913933;28;94577;-30
2022/10/04 09:43:03;;;;;;;12.98;9.82;;;15.50;99.90;;;;;;4913032;28;94477;-32
2022/10/04 09:45:51;;;;;;;15.07;11.05;;;15.60;99.90;;;;;;4985783;28;95704;-32
2022/10/04 09:48:29;;;;;;;;;;;15.60;99.90;;;;;;4995319;28;95041;-33
2022/10/04 09:51:39;;;;;;;16.60;10.35;;;15.70;99.90;;;;;;4995602;28;92103;-33
2022/10/04 09:54:44;;;;;;;12.13;9.18;;;15.70;99.90;;;;;;4976065;28;95203;-32
2022/10/04 09:57:30;;;;;;;10.98;9.00;;;15.60;99.90;;;;;;4995171;28;94708;-31
2022/10/04 10:00:22;;;;;;;10.45;9.15;;;15.70;99.90;;;;;;4982592;28;95393;-31
2022/10/04 10:03:12;;;;;;;8.77;8.07;;;15.70;99.90;;;;;;4995188;28;93458;-32
2022/10/04 10:05:54;;;;;;;17.95;9.65;;;15.80;99.90;;;;;;4994648;28;92133;-31
2022/10/04 10:08:36;;;;;;;10.93;9.30;;;15.80;99.90;;;;;;4993985;28;96748;-32
2022/10/04 10:14:51;;;;;;;12.00;10.73;;;15.90;99.90;;;;;;4984752;28;94046;-30
2022/10/04 10:17:36;;;;;;;13.05;9.23;;;15.90;99.90;;;;;;4993072;28;94386;-33
2022/10/04 10:20:16;;;;;;;14.20;9.00;;;16.00;99.90;;;;;;4995134;28;94602;-33
2022/10/04 10:23:16;;;;;;;11.43;10.23;;;16.10;99.90;;;;;;4995271;28;95115;-32
2022/10/04 10:25:55;;;;;;;10.50;9.32;;;16.10;99.90;;;;;;4994453;28;94077;-33
2022/10/04 10:28:47;;;;;;;11.40;8.95;;;16.20;99.90;;;;;;4995644;28;91311;-33
2022/10/04 10:31:35;;;;;;;11.20;10.05;;;16.20;99.90;;;;;;4994380;28;95074;-31
2022/10/04 10:34:20;;;;;;;11.00;9.98;;;16.30;99.90;;;;;;4993319;28;95155;-33
2022/10/04 10:37:04;;;;;;;9.02;7.88;;;16.30;99.90;;;;;;4993095;28;95170;-33
2022/10/04 10:39:51;;;;;;;14.18;10.18;;;16.40;99.90;;;;;;4994027;28;93982;-32
2022/10/04 10:42:38;;;;;;;8.97;8.13;;;16.50;99.90;;;;;;4992726;28;96138;-33
2022/10/04 10:45:08;;;;;;;12.60;9.90;;;16.50;99.90;;;;;;4993695;28;95533;-31
2022/10/04 10:47:51;;;;;;;13.32;9.52;;;16.50;99.90;;;;;;4997193;28;93936;-31
2022/10/04 10:50:57;;;;;;;17.67;8.48;;;16.50;99.90;;;;;;4997412;28;92692;-32
2022/10/04 10:53:50;;;;;;;15.45;8.75;;;16.60;99.90;;;;;;4998086;28;95164;-30
2022/10/04 10:56:34;;;;;;;9.02;7.63;;;16.60;99.90;;;;;;4996463;28;94818;-33
2022/10/04 10:59:24;;;;;;;10.40;7.85;;;16.70;99.90;;;;;;4997022;28;94434;-32
2022/10/04 11:02:05;;;;;;;13.50;7.90;;;16.80;99.90;;;;;;4997074;28;93125;-32
2022/10/04 11:04:40;;;;;;;7.55;6.82;;;16.90;99.90;;;;;;4978678;28;95432;-34
2022/10/04 11:07:56;;;;;;;10.80;8.38;;;16.80;99.90;;;;;;4997707;28;95711;-31
2022/10/04 11:10:29;;;;;;;12.70;7.75;;;16.80;99.90;;;;;;4951469;28;92948;-30
2022/10/04 11:13:20;;;;;;;9.57;7.47;;;16.80;99.90;;;;;;4997153;28;93482;-33
2022/10/04 11:16:18;;;;;;;10.27;8.32;;;16.80;99.90;;;;;;4997060;28;94530;-30
2022/10/04 11:18:55;;;;;;;9.98;7.38;;;16.80;99.90;;;;;;4997070;28;94786;-32
2022/10/04 11:21:51;;;;;;;11.98;8.15;;;16.80;99.90;;;;;;4997794;28;94341;-31
2022/10/04 11:24:33;;;;;;;11.50;7.53;;;16.90;99.90;;;;;;4998196;28;93651;-31
2022/10/04 11:27:11;;;;;;;9.80;6.95;;;16.90;99.90;;;;;;4996838;28;94282;-31
2022/10/04 11:30:14;;;;;;;10.23;7.57;;;17.10;99.90;;;;;;4997046;28;94361;-33
2022/10/04 11:33:24;;;;;;;8.73;7.82;;;17.20;99.90;;;;;;4994853;28;93105;-33
2022/10/04 11:36:17;;;;;;;9.90;7.38;;;17.30;99.90;;;;;;4996091;28;93269;-31
2022/10/04 11:38:48;;;;;;;8.00;6.35;;;17.30;99.90;;;;;;4996703;28;94916;-30
2022/10/04 11:41:24;;;;;;;12.07;7.47;;;17.40;99.90;;;;;;4993430;28;95124;-34
2022/10/04 11:44:04;;;;;;;12.43;6.35;;;17.50;99.90;;;;;;4997106;28;92329;-33
2022/10/04 11:47:09;;;;;;;10.73;6.15;;;17.50;99.90;;;;;;4996135;28;93094;-32
2022/10/04 11:50:07;;;;;;;7.45;5.03;;;17.60;99.90;;;;;;4995344;28;94829;-31
2022/10/04 11:52:51;;;;;;;8.27;6.03;;;17.70;99.90;;;;;;4996450;28;95300;-33
2022/10/04 11:55:41;;;;;;;14.23;6.07;;;17.80;99.90;;;;;;4978680;28;92427;-33
2022/10/04 11:58:20;;;;;;;8.00;5.55;;;17.80;99.90;;;;;;4995953;28;93016;-32
2022/10/04 12:01:07;;;;;;;8.30;6.60;;;17.90;99.90;;;;;;4995962;28;96391;-30
2022/10/04 12:04:25;;;;;;;17.53;6.10;;;17.90;99.90;;;;;;4984915;28;95749;-32
2022/10/04 12:07:22;;;;;;;6.00;5.40;;;17.90;99.90;;;;;;4996968;28;94822;-34
2022/10/04 12:10:12;;;;;;;8.50;5.05;;;17.80;99.90;;;;;;4996615;28;93626;-33
2022/10/04 12:13:06;;;;;;;12.68;6.22;;;17.80;99.90;;;;;;4995840;28;94758;-32
2022/10/04 12:15:53;;;;;;;11.13;5.47;;;17.80;99.90;;;;;;4995680;28;94832;-33
2022/10/04 12:18:36;;;;;;;9.88;5.07;;;17.80;99.90;;;;;;4996116;28;93014;-32
2022/10/04 12:21:35;;;;;;;9.82;5.63;;;17.80;99.90;;;;;;4994439;28;92299;-30
2022/10/04 12:24:22;;;;;;;7.25;4.43;;;17.90;99.90;;;;;;4996413;28;95007;-31
2022/10/04 12:27:15;;;;;;;10.70;6.47;;;17.90;99.90;;;;;;4996895;28;94484;-33
2022/10/04 12:30:02;;;;;;;9.25;4.93;;;17.90;99.90;;;;;;4996322;28;94695;-33
2022/10/04 12:32:52;;;;;;;14.32;6.47;;;17.90;99.90;;;;;;4995516;28;93669;-33
2022/10/04 12:35:52;;;;;;;9.45;5.68;;;18.00;99.90;;;;;;4994716;28;94850;-31
2022/10/04 12:38:48;;;;;;;7.07;4.30;;;18.00;99.90;;;;;;4987032;28;94745;-32
2022/10/04 12:41:38;;;;;;;7.50;6.70;;;17.90;99.90;;;;;;4995736;28;94279;-30
2022/10/04 12:44:41;;;;;;;7.93;6.13;;;18.00;99.90;;;;;;4996330;28;93387;-33
2022/10/04 12:47:25;;;;;;;7.43;5.10;;;18.00;99.90;;;;;;4987117;28;94333;-32
2022/10/04 12:50:04;;;;;;;8.50;5.97;;;18.00;99.90;;;;;;5032594;22;94448;-33
2022/10/04 12:53:04;;;;;;;6.75;5.72;;;18.00;99.90;;;;;;4983614;28;94392;-30
2022/10/04 12:55:51;;;;;;;6.35;5.15;;;18.00;99.90;;;;;;4981639;28;94307;-32
2022/10/04 12:58:39;;;;;;;9.77;7.40;;;18.10;99.90;;;;;;4974178;28;95623;-33
2022/10/04 13:01:42;;;;;;;14.13;5.85;;;18.10;99.90;;;;;;4976157;28;95620;-31
2022/10/04 13:04:23;;;;;;;9.60;6.60;;;18.10;99.90;;;;;;4976379;28;93411;-33
2022/10/04 13:06:51;;;;;;;8.90;6.45;;;18.10;99.90;;;;;;4975561;28;93685;-30
2022/10/04 13:09:30;;;;;;;;;;;18.00;99.90;;;;;;4975833;28;95353;-32
2022/10/04 13:11:56;;;;;;;11.07;6.82;;;18.00;99.90;;;;;;4977350;28;94551;-34
2022/10/04 13:14:52;;;;;;;6.38;5.78;;;18.00;99.90;;;;;;4975938;28;93653;-30
2022/10/04 13:17:23;;;;;;;8.13;6.50;;;18.10;99.90;;;;;;4975004;28;94022;-33
2022/10/04 13:19:58;;;;;;;7.10;6.40;;;18.10;99.90;;;;;;4956911;28;94502;-32
2022/10/04 13:22:45;;;;;;;9.80;6.95;;;18.00;99.90;;;;;;4975238;28;95066;-34
2022/10/04 13:25:20;;;;;;;13.35;8.15;;;17.90;99.90;;;;;;4975300;28;94880;-32
2022/10/04 13:27:51;;;;;;;12.05;6.18;;;18.00;99.90;;;;;;4974333;28;94445;-31
2022/10/04 13:30:26;;;;;;;9.27;6.22;;;17.90;99.90;;;;;;4974099;28;95988;-32
2022/10/04 13:33:17;;;;;;;7.38;6.68;;;17.90;99.90;;;;;;4976701;28;94475;-33
2022/10/04 13:36:13;;;;;;;6.70;5.85;;;18.00;99.90;;;;;;4986281;28;93293;-31
2022/10/04 13:38:57;;;;;;;6.70;5.68;;;17.90;99.90;;;;;;4977703;28;94479;-35
2022/10/04 13:41:42;;;;;;;6.90;6.03;;;18.00;99.90;;;;;;4973068;28;94678;-31
2022/10/04 13:44:16;;;;;;;7.45;6.45;;;18.00;99.90;;;;;;4984722;28;94963;-32
2022/10/04 13:47:06;;;;;;;7.43;6.43;;;17.90;99.90;;;;;;4976357;28;94375;-30
2022/10/04 13:49:50;;;;;;;8.98;7.28;;;17.70;99.90;;;;;;4980293;28;93251;-31
2022/10/04 13:58:38;;;;;;;8.32;6.50;;;17.60;99.90;;;;;;4979280;28;94332;-34
2022/10/04 14:01:40;;;;;;;9.07;6.07;;;17.70;99.90;;;;;;4980903;28;94087;-31